createdAt,value
2019-02-24T00:00:43.339Z,50.87
2019-02-24T00:03:09.584Z,51.67
2019-02-24T00:05:37.001Z,51.42
2019-02-24T00:08:03.448Z,51.48
2019-02-24T00:10:29.590Z,51.20
2019-02-24T00:12:55.815Z,51.40
2019-02-24T00:15:22.032Z,51.09
2019-02-24T00:17:48.117Z,52.13
2019-02-24T00:20:18.298Z,52.37
2019-02-24T00:22:44.541Z,52.63
2019-02-24T00:25:15.417Z,52.51
2019-02-24T00:27:41.821Z,52.41
2019-02-24T00:30:16.714Z,52.50
2019-02-24T00:32:42.986Z,52.91
2019-02-24T00:35:14.604Z,52.81
2019-02-24T00:37:41.068Z,53.03
2019-02-24T00:40:07.372Z,52.92
2019-02-24T00:42:33.564Z,53.16
2019-02-24T00:44:59.889Z,53.02
2019-02-24T00:47:26.206Z,54.39
2019-02-24T00:49:54.044Z,55.05
2019-02-24T00:52:20.530Z,54.41
2019-02-24T00:54:46.984Z,54.74
2019-02-24T00:57:13.304Z,54.61
2019-02-24T00:59:39.524Z,54.82
2019-02-24T01:02:05.833Z,55.11
2019-02-24T01:04:31.983Z,55.82
2019-02-24T01:06:58.259Z,56.05
2019-02-24T01:09:24.736Z,55.33
2019-02-24T01:11:51.028Z,56.06
2019-02-24T01:14:17.287Z,55.92
2019-02-24T01:16:43.558Z,55.17
2019-02-24T01:19:09.761Z,55.02
2019-02-24T01:21:36.192Z,55.04
2019-02-24T01:24:08.568Z,54.93
2019-02-24T01:26:34.953Z,55.14
2019-02-24T01:29:09.120Z,55.96
2019-02-24T01:31:35.479Z,56.80
2019-02-24T01:34:02.254Z,56.34
2019-02-24T01:36:29.731Z,56.19
2019-02-24T01:38:55.951Z,55.38
2019-02-24T01:41:22.259Z,55.36
2019-02-24T01:43:48.586Z,55.67
2019-02-24T01:46:14.925Z,55.21
2019-02-24T01:48:41.092Z,55.64
2019-02-24T01:51:07.345Z,55.81
2019-02-24T01:53:33.615Z,56.43
2019-02-24T01:55:59.902Z,57.36
2019-02-24T01:58:34.631Z,56.11
2019-02-24T02:00:54.581Z,56.02
2019-02-24T02:03:20.912Z,55.69
2019-02-24T02:05:47.145Z,55.25
2019-02-24T02:08:13.302Z,55.60
2019-02-24T02:10:39.550Z,55.20
2019-02-24T02:13:16.070Z,55.24
2019-02-24T02:15:42.230Z,55.31
2019-02-24T02:18:08.464Z,55.10
2019-02-24T02:20:34.756Z,55.22
2019-02-24T02:23:08.500Z,55.79
2019-02-24T02:25:34.920Z,55.52
2019-02-24T02:28:06.291Z,54.92
2019-02-24T02:30:32.564Z,55.03
2019-02-24T02:32:58.753Z,55.05
2019-02-24T02:35:24.883Z,55.88
2019-02-24T02:37:50.984Z,55.02
2019-02-24T02:40:20.535Z,55.04
2019-02-24T02:42:46.658Z,54.84
2019-02-24T02:45:12.875Z,55.23
2019-02-24T02:47:39.325Z,54.92
2019-02-24T02:50:05.664Z,54.90
2019-02-24T02:52:31.960Z,54.89
2019-02-24T02:54:59.846Z,55.13
2019-02-24T02:57:25.939Z,54.89
2019-02-24T02:59:52.176Z,56.56
2019-02-24T03:02:24.416Z,55.88
2019-02-24T03:04:46.662Z,55.68
2019-02-24T03:07:20.635Z,56.01
2019-02-24T03:09:49.565Z,55.60
2019-02-24T03:12:15.802Z,55.26
2019-02-24T03:14:41.908Z,54.81
2019-02-24T03:17:08.320Z,55.64
2019-02-24T03:19:34.404Z,56.40
2019-02-24T03:24:40.237Z,58.02
2019-02-24T03:27:06.569Z,58.46
2019-02-24T03:29:32.913Z,58.73
2019-02-24T03:31:59.323Z,59.13
2019-02-24T03:34:25.673Z,59.44
2019-02-24T03:36:51.994Z,59.35
2019-02-24T03:39:19.426Z,59.52
2019-02-24T03:41:45.546Z,59.28
2019-02-24T03:44:11.782Z,59.90
2019-02-24T03:46:37.914Z,60.72
2019-02-24T03:49:04.138Z,59.43
2019-02-24T03:51:30.256Z,59.57
2019-02-24T03:53:56.834Z,61.05
2019-02-24T03:56:23.091Z,61.10
2019-02-24T03:58:49.306Z,60.70
2019-02-24T04:01:15.696Z,61.16
2019-02-24T04:03:41.894Z,61.40
2019-02-24T04:06:07.998Z,62.29
2019-02-24T04:08:34.108Z,62.06
2019-02-24T04:11:00.235Z,62.44
2019-02-24T04:13:26.413Z,63.25
2019-02-24T04:15:52.701Z,63.53
2019-02-24T04:18:18.953Z,63.72
2019-02-24T04:20:45.126Z,63.64
2019-02-24T04:23:11.547Z,63.24
2019-02-24T04:25:37.760Z,63.36
2019-02-24T04:28:03.899Z,63.42
2019-02-24T04:30:30.137Z,63.13
2019-02-24T04:32:56.252Z,63.54
2019-02-24T04:35:22.374Z,63.39
2019-02-24T04:37:48.510Z,63.56
2019-02-24T04:40:14.741Z,64.36
2019-02-24T04:42:40.997Z,65.45
2019-02-24T04:45:07.260Z,64.32
2019-02-24T04:47:34.466Z,62.62
2019-02-24T04:50:00.712Z,63.86
2019-02-24T04:52:26.981Z,63.94
2019-02-24T04:54:53.303Z,63.66
2019-02-24T04:57:19.513Z,64.42
2019-02-24T04:59:45.585Z,64.77
2019-02-24T05:02:11.787Z,64.73
2019-02-24T05:04:37.963Z,65.09
2019-02-24T05:07:04.123Z,65.27
2019-02-24T05:09:30.398Z,65.64
2019-02-24T05:11:56.507Z,66.22
2019-02-24T05:14:22.600Z,66.61
2019-02-24T05:16:48.891Z,66.19
2019-02-24T05:19:15.218Z,65.31
2019-02-24T05:21:41.311Z,65.03
2019-02-24T05:24:07.647Z,65.78
2019-02-24T05:26:34.134Z,65.28
2019-02-24T05:29:00.374Z,66.05
2019-02-24T05:31:26.620Z,66.75
2019-02-24T05:33:52.792Z,67.44
2019-02-24T05:36:19.203Z,67.64
2019-02-24T05:38:45.553Z,68.04
2019-02-24T05:41:11.774Z,67.63
2019-02-24T05:43:37.872Z,67.25
2019-02-24T05:46:04.206Z,67.65
2019-02-24T05:48:30.453Z,67.72
2019-02-24T05:50:56.767Z,67.01
2019-02-24T05:53:22.916Z,67.20
2019-02-24T05:55:49.014Z,67.88
2019-02-24T05:58:15.252Z,68.01
2019-02-24T06:00:41.416Z,68.62
2019-02-24T06:03:07.701Z,68.36
2019-02-24T06:05:33.972Z,67.85
2019-02-24T06:08:01.424Z,68.19
2019-02-24T06:10:27.517Z,68.33
2019-02-24T06:12:53.778Z,68.43
2019-02-24T06:15:19.921Z,68.50
2019-02-24T06:17:46.114Z,68.05
2019-02-24T06:20:12.330Z,68.18
2019-02-24T06:22:38.757Z,68.67
2019-02-24T06:25:04.939Z,67.95
2019-02-24T06:27:31.125Z,67.66
2019-02-24T06:30:04.534Z,68.23
2019-02-24T06:32:26.266Z,67.88
2019-02-24T06:34:52.587Z,68.93
2019-02-24T06:37:18.722Z,70.08
2019-02-24T06:39:44.865Z,69.79
2019-02-24T06:42:11.057Z,69.61
2019-02-24T06:44:37.136Z,69.62
2019-02-24T06:47:03.618Z,69.58
2019-02-24T06:49:29.715Z,69.20
2019-02-24T06:51:57.012Z,68.33
2019-02-24T06:54:23.116Z,68.19
2019-02-24T06:56:49.519Z,67.98
2019-02-24T06:59:15.661Z,68.14
2019-02-24T07:01:41.861Z,67.87
2019-02-24T07:04:08.040Z,68.38
2019-02-24T07:06:34.323Z,67.75
2019-02-24T07:09:00.513Z,67.21
2019-02-24T07:11:26.646Z,67.01
2019-02-24T07:13:52.848Z,67.86
2019-02-24T07:16:19.199Z,68.17
2019-02-24T07:18:45.320Z,67.60
2019-02-24T07:21:11.462Z,67.43
2019-02-24T07:23:37.582Z,66.66
2019-02-24T07:26:03.915Z,65.32
2019-02-24T07:28:30.116Z,63.44
2019-02-24T07:30:56.294Z,62.70
2019-02-24T07:33:22.541Z,61.25
2019-02-24T07:35:49.033Z,60.08
2019-02-24T07:38:15.377Z,58.79
2019-02-24T07:40:41.493Z,57.43
2019-02-24T07:43:07.612Z,57.21
2019-02-24T07:45:33.939Z,56.95
2019-02-24T07:48:00.472Z,56.17
2019-02-24T07:50:26.639Z,56.15
2019-02-24T07:52:52.893Z,55.99
2019-02-24T07:55:19.087Z,55.59
2019-02-24T07:57:45.313Z,54.84
2019-02-24T08:00:11.645Z,53.63
2019-02-24T08:02:37.928Z,53.04
2019-02-24T08:05:05.998Z,52.65
2019-02-24T08:07:32.245Z,52.18
2019-02-24T08:09:58.554Z,50.84
2019-02-24T08:12:24.801Z,50.21
2019-02-24T08:14:50.900Z,49.77
2019-02-24T08:17:17.036Z,50.25
2019-02-24T08:19:43.265Z,49.37
2019-02-24T08:22:09.374Z,48.32
2019-02-24T08:24:35.612Z,46.94
2019-02-24T08:27:01.876Z,46.69
2019-02-24T08:29:29.516Z,46.84
2019-02-24T08:31:56.212Z,45.52
2019-02-24T08:34:22.323Z,45.38
2019-02-24T08:36:48.693Z,45.91
2019-02-24T08:39:14.806Z,44.65
2019-02-24T08:41:40.948Z,44.45
2019-02-24T08:44:07.258Z,42.44
2019-02-24T08:46:33.442Z,42.64
2019-02-24T08:48:59.753Z,42.44
2019-02-24T08:51:26.057Z,41.47
2019-02-24T08:53:52.182Z,42.38
2019-02-24T08:56:18.412Z,42.97
2019-02-24T08:58:44.720Z,41.79
2019-02-24T09:01:11.032Z,42.66
2019-02-24T09:03:37.253Z,42.90
2019-02-24T09:06:03.554Z,43.82
2019-02-24T09:08:29.701Z,43.16
2019-02-24T09:10:55.837Z,42.85
2019-02-24T09:13:22.174Z,43.42
2019-02-24T09:15:48.481Z,42.53
2019-02-24T09:18:14.854Z,41.40
2019-02-24T09:20:41.210Z,40.71
2019-02-24T09:23:16.848Z,40.89
2019-02-24T09:25:58.992Z,41.52
2019-02-24T09:28:31.209Z,40.96
2019-02-24T09:31:00.761Z,40.31
2019-02-24T09:33:25.554Z,39.41
2019-02-24T09:35:51.924Z,39.25
2019-02-24T09:38:19.411Z,38.97
2019-02-24T09:40:45.643Z,37.41
2019-02-24T09:43:11.916Z,37.56
2019-02-24T09:45:38.161Z,35.97
2019-02-24T09:48:04.433Z,36.10
2019-02-24T09:50:30.661Z,36.03
2019-02-24T09:52:56.894Z,34.79
2019-02-24T09:55:23.063Z,34.61
2019-02-24T09:57:49.269Z,34.03
2019-02-24T10:00:15.687Z,33.96
2019-02-24T10:02:42.158Z,34.02
2019-02-24T10:05:08.287Z,33.00
2019-02-24T10:07:34.438Z,32.59
2019-02-24T10:10:00.642Z,33.03
2019-02-24T10:12:27.052Z,32.64
2019-02-24T10:14:53.184Z,31.00
2019-02-24T10:17:19.516Z,32.25
2019-02-24T10:19:45.858Z,33.32
2019-02-24T10:22:12.188Z,33.18
2019-02-24T10:24:38.526Z,32.38
2019-02-24T10:27:04.855Z,32.75
2019-02-24T10:29:31.109Z,30.52
2019-02-24T10:31:57.431Z,31.28
2019-02-24T10:34:23.687Z,30.83
2019-02-24T10:36:49.919Z,29.53
2019-02-24T10:39:16.037Z,29.12
2019-02-24T10:41:42.257Z,28.96
2019-02-24T10:44:08.381Z,27.87
2019-02-24T10:46:34.583Z,28.52
2019-02-24T10:49:03.367Z,27.51
2019-02-24T10:51:28.849Z,28.76
2019-02-24T10:53:55.238Z,26.93
2019-02-24T10:56:21.591Z,27.76
2019-02-24T10:58:47.808Z,27.42
2019-02-24T11:01:14.162Z,29.38
2019-02-24T11:03:40.416Z,28.64
2019-02-24T11:06:06.753Z,28.64
2019-02-24T11:08:33.128Z,28.38
2019-02-24T11:10:59.283Z,29.43
2019-02-24T11:13:25.668Z,29.28
2019-02-24T11:15:52.213Z,29.74
2019-02-24T11:18:18.814Z,28.13
2019-02-24T11:20:45.143Z,28.09
2019-02-24T11:23:11.442Z,28.09
2019-02-24T11:25:38.809Z,27.86
2019-02-24T11:28:05.228Z,27.86
2019-02-24T11:30:31.612Z,26.99
2019-02-24T11:32:58.008Z,28.51
2019-02-24T11:35:24.319Z,27.41
2019-02-24T11:37:50.579Z,27.93
2019-02-24T11:40:17.375Z,27.67
2019-02-24T11:42:43.752Z,27.33
2019-02-24T11:45:10.134Z,27.86
2019-02-24T11:47:36.419Z,24.32
2019-02-24T11:50:05.323Z,26.03
2019-02-24T11:52:32.585Z,26.52
2019-02-24T11:54:58.933Z,27.97
2019-02-24T11:57:25.473Z,26.46
2019-02-24T11:59:51.529Z,26.15
2019-02-24T12:02:17.758Z,26.10
2019-02-24T12:04:44.019Z,24.63
2019-02-24T12:07:10.326Z,25.27
2019-02-24T12:09:36.590Z,26.34
2019-02-24T12:12:06.173Z,26.55
2019-02-24T12:14:32.380Z,27.90
2019-02-24T12:16:58.736Z,28.87
2019-02-24T12:19:25.194Z,28.32
2019-02-24T12:21:51.644Z,29.36
2019-02-24T12:24:17.841Z,27.51
2019-02-24T12:26:47.684Z,26.87
2019-02-24T12:29:13.837Z,27.50
2019-02-24T12:31:45.400Z,26.90
2019-02-24T12:34:11.586Z,24.31
2019-02-24T12:36:37.997Z,24.19
2019-02-24T12:39:05.118Z,23.74
2019-02-24T12:41:33.222Z,24.89
2019-02-24T12:43:59.363Z,24.85
2019-02-24T12:46:25.690Z,24.99
2019-02-24T12:48:52.150Z,25.06
2019-02-24T12:51:18.466Z,25.42
2019-02-24T12:53:45.121Z,27.15
2019-02-24T12:56:11.483Z,27.67
2019-02-24T12:58:37.719Z,27.95
2019-02-24T13:01:06.550Z,26.62
2019-02-24T13:03:32.919Z,26.89
2019-02-24T13:05:59.214Z,27.25
2019-02-24T13:08:25.690Z,25.65
2019-02-24T13:10:51.894Z,25.03
2019-02-24T13:13:18.228Z,23.78
2019-02-24T13:15:46.287Z,22.34
2019-02-24T13:18:15.778Z,23.86
2019-02-24T13:20:42.117Z,24.91
2019-02-24T13:23:08.985Z,23.94
2019-02-24T13:25:36.431Z,23.75
2019-02-24T13:28:05.920Z,24.05
2019-02-24T13:30:32.158Z,24.60
2019-02-24T13:32:58.417Z,23.32
2019-02-24T13:35:25.018Z,24.02
2019-02-24T13:37:51.167Z,23.47
2019-02-24T13:40:17.605Z,24.02
2019-02-24T13:42:43.861Z,24.19
2019-02-24T13:45:17.539Z,23.05
2019-02-24T13:47:43.980Z,24.03
2019-02-24T13:50:13.855Z,23.53
2019-02-24T13:52:40.291Z,24.63
2019-02-24T13:55:09.233Z,23.52
2019-02-24T13:57:35.392Z,21.82
2019-02-24T14:00:12.392Z,21.84
2019-02-24T14:02:40.530Z,21.51
2019-02-24T14:05:08.384Z,21.94
2019-02-24T14:07:34.805Z,22.45
2019-02-24T14:10:09.434Z,22.94
2019-02-24T14:12:35.776Z,22.25
2019-02-24T14:15:09.982Z,20.91
2019-02-24T14:17:37.274Z,21.31
2019-02-24T14:20:09.741Z,22.76
2019-02-24T14:22:36.067Z,22.28
2019-02-24T14:25:07.773Z,21.97
2019-02-24T14:27:33.937Z,21.70
2019-02-24T14:30:00.291Z,21.13
2019-02-24T14:32:32.832Z,21.53
2019-02-24T14:34:55.948Z,20.10
2019-02-24T14:37:22.370Z,21.22
2019-02-24T14:39:48.651Z,20.16
2019-02-24T14:42:18.226Z,22.16
2019-02-24T14:44:44.718Z,22.29
2019-02-24T14:47:10.959Z,22.41
2019-02-24T14:49:37.236Z,21.99
2019-02-24T14:52:03.839Z,21.34
2019-02-24T14:54:30.208Z,20.91
2019-02-24T14:56:56.444Z,21.87
2019-02-24T14:59:22.677Z,21.14
2019-02-24T15:01:48.826Z,22.70
2019-02-24T15:04:14.899Z,24.05
2019-02-24T15:06:41.275Z,24.52
2019-02-24T15:09:08.271Z,24.15
2019-02-24T15:11:34.898Z,23.39
2019-02-24T15:14:01.106Z,23.10
2019-02-24T15:16:27.401Z,23.16
2019-02-24T15:18:53.643Z,24.62
2019-02-24T15:21:20.412Z,23.12
2019-02-24T15:23:46.710Z,23.53
2019-02-24T15:26:13.068Z,24.80
2019-02-24T15:28:39.397Z,24.70
2019-02-24T15:31:07.724Z,24.45
2019-02-24T15:33:33.986Z,24.68
2019-02-24T15:36:00.300Z,24.77
2019-02-24T15:38:26.620Z,25.23
2019-02-24T15:40:52.889Z,25.82
2019-02-24T15:43:19.089Z,26.98
2019-02-24T15:45:45.422Z,26.18
2019-02-24T15:48:11.758Z,26.36
2019-02-24T15:50:37.994Z,27.11
2019-02-24T15:53:04.383Z,28.28
2019-02-24T15:55:30.716Z,24.90
2019-02-24T15:57:57.135Z,26.39
2019-02-24T16:00:24.068Z,25.33
2019-02-24T16:02:50.391Z,25.53
2019-02-24T16:05:16.627Z,26.41
2019-02-24T16:07:42.995Z,26.43
2019-02-24T16:10:15.822Z,26.81
2019-02-24T16:12:42.138Z,27.08
2019-02-24T16:15:11.620Z,25.96
2019-02-24T16:17:37.966Z,27.44
2019-02-24T16:20:07.944Z,29.24
2019-02-24T16:22:34.298Z,28.57
2019-02-24T16:25:00.531Z,28.35
2019-02-24T16:27:26.781Z,29.05
2019-02-24T16:29:53.127Z,28.17
2019-02-24T16:32:19.301Z,29.72
2019-02-24T16:34:46.562Z,28.53
2019-02-24T16:37:12.950Z,27.56
2019-02-24T16:39:39.216Z,30.41
2019-02-24T16:42:06.717Z,32.71
2019-02-24T16:44:33.092Z,33.07
2019-02-24T16:46:59.630Z,33.80
2019-02-24T16:49:25.743Z,31.06
2019-02-24T16:51:51.982Z,31.32
2019-02-24T16:54:18.351Z,30.88
2019-02-24T16:56:44.587Z,32.68
2019-02-24T16:59:10.932Z,35.63
2019-02-24T17:01:37.063Z,36.50
2019-02-24T17:04:03.543Z,38.55
2019-02-24T17:06:29.824Z,38.68
2019-02-24T17:09:02.543Z,38.78
2019-02-24T17:11:24.265Z,41.85
2019-02-24T17:13:50.857Z,39.89
2019-02-24T17:16:17.141Z,41.45
2019-02-24T17:18:43.559Z,41.45
2019-02-24T17:21:09.801Z,41.51
2019-02-24T17:23:36.128Z,41.75
2019-02-24T17:26:02.693Z,41.98
2019-02-24T17:28:28.968Z,42.03
2019-02-24T17:30:55.275Z,42.24
2019-02-24T17:33:29.796Z,42.21
2019-02-24T17:35:49.962Z,40.74
2019-02-24T17:38:16.341Z,40.50
2019-02-24T17:40:42.723Z,39.41
2019-02-24T17:43:08.964Z,43.22
2019-02-24T17:45:35.246Z,43.54
2019-02-24T17:48:01.581Z,42.80
2019-02-24T17:50:28.151Z,42.06
2019-02-24T17:52:54.593Z,43.38
2019-02-24T17:55:21.152Z,43.50
2019-02-24T17:57:47.567Z,42.68
2019-02-24T18:00:25.950Z,42.67
2019-02-24T18:02:52.273Z,44.76
2019-02-24T18:05:18.638Z,45.07
2019-02-24T18:07:45.123Z,45.87
2019-02-24T18:10:11.549Z,44.64
2019-02-24T18:12:37.799Z,44.73
2019-02-24T18:15:08.490Z,43.88
2019-02-24T18:17:34.849Z,47.96
2019-02-24T18:20:01.311Z,47.43
2019-02-24T18:22:27.658Z,46.47
2019-02-24T18:25:02.716Z,45.57
2019-02-24T18:27:23.834Z,43.20
2019-02-24T18:29:51.148Z,46.22
2019-02-24T18:32:17.622Z,47.48
2019-02-24T18:34:44.164Z,48.16
2019-02-24T18:37:10.571Z,47.59
2019-02-24T18:39:36.907Z,44.93
2019-02-24T18:42:05.010Z,46.34
2019-02-24T18:44:31.386Z,47.41
2019-02-24T18:46:57.605Z,45.58
2019-02-24T18:49:25.771Z,48.64
2019-02-24T18:51:52.076Z,48.46
2019-02-24T18:54:18.430Z,48.88
2019-02-24T18:56:44.747Z,47.65
2019-02-24T18:59:11.105Z,45.88
2019-02-24T19:01:37.336Z,45.00
2019-02-24T19:04:03.680Z,45.53
2019-02-24T19:06:38.768Z,45.90
2019-02-24T19:08:58.278Z,46.64
2019-02-24T19:11:24.646Z,47.77
2019-02-24T19:13:50.926Z,47.29
2019-02-24T19:16:17.146Z,47.36
2019-02-24T19:18:44.812Z,49.03
2019-02-24T19:21:12.285Z,48.28
2019-02-24T19:23:38.573Z,48.05
2019-02-24T19:26:04.899Z,48.19
2019-02-24T19:28:32.248Z,48.09
2019-02-24T19:30:58.559Z,49.02
2019-02-24T19:33:24.895Z,47.94
2019-02-24T19:35:51.431Z,48.01
2019-02-24T19:38:17.646Z,46.70
2019-02-24T19:40:44.108Z,47.10
2019-02-24T19:43:10.396Z,47.34
2019-02-24T19:45:36.896Z,45.50
2019-02-24T19:48:03.180Z,45.68
2019-02-24T19:50:29.436Z,45.00
2019-02-24T19:52:55.710Z,45.50
2019-02-24T19:55:21.935Z,47.05
2019-02-24T19:57:48.396Z,46.02
2019-02-24T20:00:22.730Z,46.24
2019-02-24T20:02:49.056Z,46.92
2019-02-24T20:05:15.460Z,47.33
2019-02-24T20:07:41.777Z,46.28
2019-02-24T20:10:10.745Z,46.00
2019-02-24T20:12:37.057Z,47.17
2019-02-24T20:15:07.086Z,47.12
2019-02-24T20:17:33.497Z,47.08
2019-02-24T20:19:59.819Z,46.13
2019-02-24T20:22:26.098Z,45.67
2019-02-24T20:24:52.426Z,46.33
2019-02-24T20:27:18.741Z,46.46
2019-02-24T20:29:44.880Z,46.98
2019-02-24T20:32:11.338Z,47.56
2019-02-24T20:34:37.460Z,49.44
2019-02-24T20:37:04.008Z,49.54
2019-02-24T20:39:30.274Z,49.43
2019-02-24T20:41:56.567Z,48.98
2019-02-24T20:44:22.760Z,49.47
2019-02-24T20:46:49.052Z,48.84
2019-02-24T20:49:15.388Z,49.29
2019-02-24T20:51:42.722Z,50.23
2019-02-24T20:54:18.289Z,51.37
2019-02-24T20:56:44.800Z,50.40
2019-02-24T20:59:19.272Z,50.31
2019-02-24T21:01:45.838Z,51.31
2019-02-24T21:04:17.830Z,50.04
2019-02-24T21:06:44.102Z,50.48
2019-02-24T21:09:16.803Z,51.03
2019-02-24T21:11:43.045Z,50.30
2019-02-24T21:14:09.429Z,53.38
2019-02-24T21:16:35.754Z,51.38
2019-02-24T21:19:10.291Z,52.00
2019-02-24T21:21:36.631Z,52.30
2019-02-24T21:24:05.094Z,51.63
2019-02-24T21:26:31.605Z,51.72
2019-02-24T21:28:58.055Z,51.28
2019-02-24T21:31:24.343Z,51.33
2019-02-24T21:36:29.479Z,51.75
2019-02-24T21:38:55.830Z,51.86
2019-02-24T21:41:29.895Z,52.78
2019-02-24T21:43:57.285Z,55.59
2019-02-24T21:46:23.548Z,55.46
2019-02-24T21:48:57.241Z,54.71
2019-02-24T21:51:23.461Z,54.80
2019-02-24T21:53:51.863Z,54.87
2019-02-24T21:56:21.381Z,54.28
2019-02-24T21:58:50.597Z,54.74
2019-02-24T22:01:17.305Z,54.49
2019-02-24T22:03:43.640Z,53.92
2019-02-24T22:06:09.852Z,53.69
2019-02-24T22:08:36.096Z,54.69
2019-02-24T22:11:05.299Z,54.51
2019-02-24T22:13:31.565Z,55.17
2019-02-24T22:15:57.817Z,54.62
2019-02-24T22:18:24.240Z,56.66
2019-02-24T22:20:50.370Z,57.24
2019-02-24T22:23:16.751Z,58.23
2019-02-24T22:25:43.077Z,57.99
2019-02-24T22:28:09.379Z,58.33
2019-02-24T22:30:35.734Z,58.06
2019-02-24T22:33:02.056Z,56.79
2019-02-24T22:35:28.407Z,57.12
2019-02-24T22:37:54.696Z,56.90
2019-02-24T22:40:21.015Z,56.02
2019-02-24T22:42:47.136Z,54.94
2019-02-24T22:45:17.026Z,56.46
2019-02-24T22:47:44.045Z,55.89
2019-02-24T22:50:12.177Z,57.59
2019-02-24T22:52:38.414Z,57.08
2019-02-24T22:55:17.699Z,57.94
2019-02-24T22:57:44.017Z,58.96
2019-02-24T23:00:51.335Z,58.24
2019-02-24T23:03:21.185Z,58.22
2019-02-24T23:05:47.757Z,60.50
2019-02-24T23:08:15.444Z,59.94
2019-02-24T23:10:41.926Z,59.85
2019-02-24T23:13:08.369Z,60.02
2019-02-24T23:15:34.787Z,59.09
2019-02-24T23:18:04.673Z,58.81
2019-02-24T23:20:31.405Z,59.08
2019-02-24T23:22:57.886Z,59.54
2019-02-24T23:25:24.053Z,59.01
2019-02-24T23:27:50.462Z,58.54
2019-02-24T23:30:16.817Z,57.96
2019-02-24T23:32:43.243Z,58.65
2019-02-24T23:35:16.574Z,58.77
2019-02-24T23:37:42.826Z,57.27
2019-02-24T23:40:09.181Z,56.85
2019-02-24T23:42:35.411Z,59.91
2019-02-24T23:45:13.568Z,60.63
2019-02-24T23:47:39.772Z,60.45
2019-02-24T23:50:08.058Z,61.09
2019-02-24T23:52:34.151Z,61.45
2019-02-24T23:55:00.312Z,61.61
2019-02-24T23:57:27.618Z,60.65
2019-02-24T23:59:53.754Z,60.14
